Terminal Aerodrome Forecast
Issued by NWS

Home | Current Version | Previous Version | Text Only | Print | Product List | Glossary On
Versions: 1 2 3 4 5 6 7 8 9 10 11 12 13
000
FTUS45 KLKN 262320
TAFEKO
TAF
KEKO 262320Z 2700/2724 23012G25KT P6SM VCSH SCT050 BKN120
      TEMPO 2703/2706 6SM -SN BR BKN030 OVC100
     FM270600 23008KT 6SM -SN BR SCT020 OVC030
      TEMPO 2714/2718 4SM -SN BR BKN018
     FM271800 25011G20KT 4SM -SN BR BKN018 OVC030=

USA.gov is the U.S. government's official web portal to all federal, state and local government web resources and services.